sensor_id;sensor_type;location;lat;lon;timestamp;pressure;altitude;pressure_sealevel;temperature;humidity
23619;BME280;18207;32.078;34.818;2024-01-10T00:01:57;101124.41;;;23.10;39.09
23619;BME280;18207;32.078;34.818;2024-01-10T00:04:28;101117.47;;;23.07;38.68
23619;BME280;18207;32.078;34.818;2024-01-10T00:06:57;101120.63;;;23.06;38.47
23619;BME280;18207;32.078;34.818;2024-01-10T00:09:29;101120.13;;;23.04;38.68
23619;BME280;18207;32.078;34.818;2024-01-10T00:11:59;101115.38;;;23.04;38.93
23619;BME280;18207;32.078;34.818;2024-01-10T00:14:29;101110.91;;;23.03;39.13
23619;BME280;18207;32.078;34.818;2024-01-10T00:16:58;101114.84;;;23.02;38.59
23619;BME280;18207;32.078;34.818;2024-01-10T00:19:29;101108.41;;;23.02;38.82
23619;BME280;18207;32.078;34.818;2024-01-10T00:21:59;101106.78;;;23.01;38.73
23619;BME280;18207;32.078;34.818;2024-01-10T00:24:30;101098.72;;;22.99;38.57
23619;BME280;18207;32.078;34.818;2024-01-10T00:27:00;101107.47;;;22.98;38.81
23619;BME280;18207;32.078;34.818;2024-01-10T00:29:30;101099.06;;;22.98;39.02
23619;BME280;18207;32.078;34.818;2024-01-10T00:32:00;101103.53;;;22.99;39.03
23619;BME280;18207;32.078;34.818;2024-01-10T00:34:30;101099.88;;;22.98;38.79
23619;BME280;18207;32.078;34.818;2024-01-10T00:37:00;101100.72;;;22.99;38.55
23619;BME280;18207;32.078;34.818;2024-01-10T00:39:32;101097.91;;;22.99;38.86
23619;BME280;18207;32.078;34.818;2024-01-10T00:42:01;101094.28;;;22.98;39.03
23619;BME280;18207;32.078;34.818;2024-01-10T00:44:31;101092.63;;;22.97;38.85
23619;BME280;18207;32.078;34.818;2024-01-10T00:47:01;101100.22;;;22.97;38.80
23619;BME280;18207;32.078;34.818;2024-01-10T00:49:31;101090.66;;;22.98;38.92
23619;BME280;18207;32.078;34.818;2024-01-10T00:52:01;101098.22;;;22.97;38.98
23619;BME280;18207;32.078;34.818;2024-01-10T00:54:33;101099.06;;;22.98;39.37
23619;BME280;18207;32.078;34.818;2024-01-10T00:57:03;101099.88;;;22.98;39.20
23619;BME280;18207;32.078;34.818;2024-01-10T00:59:33;101098.22;;;22.97;38.67
23619;BME280;18207;32.078;34.818;2024-01-10T01:02:03;101099.06;;;22.98;38.98
23619;BME280;18207;32.078;34.818;2024-01-10T01:04:33;101094.97;;;22.95;38.86
23619;BME280;18207;32.078;34.818;2024-01-10T01:07:03;101093.34;;;22.94;39.04
23619;BME280;18207;32.078;34.818;2024-01-10T01:09:35;101096.94;;;22.95;39.06
23619;BME280;18207;32.078;34.818;2024-01-10T01:12:05;101095.31;;;22.94;39.07
23619;BME280;18207;32.078;34.818;2024-01-10T01:14:35;101099.25;;;22.93;38.71
23619;BME280;18207;32.078;34.818;2024-01-10T01:17:05;101102.06;;;22.93;38.97
23619;BME280;18207;32.078;34.818;2024-01-10T01:19:35;101092.00;;;22.92;39.13
23619;BME280;18207;32.078;34.818;2024-01-10T01:22:05;101097.16;;;22.90;38.77
23619;BME280;18207;32.078;34.818;2024-01-10T01:24:37;101095.19;;;22.90;38.90
23619;BME280;18207;32.078;34.818;2024-01-10T01:27:07;101087.13;;;22.89;39.11
23619;BME280;18207;32.078;34.818;2024-01-10T01:29:36;101087.44;;;22.87;38.96
23619;BME280;18207;32.078;34.818;2024-01-10T01:32:06;101090.25;;;22.87;38.79
23619;BME280;18207;32.078;34.818;2024-01-10T01:34:36;101076.59;;;22.86;39.10
23619;BME280;18207;32.078;34.818;2024-01-10T01:37:06;101080.53;;;22.85;39.13
23619;BME280;18207;32.078;34.818;2024-01-10T01:39:38;101086.16;;;22.85;38.88
23619;BME280;18207;32.078;34.818;2024-01-10T01:42:08;101076.47;;;22.82;38.48
23619;BME280;18207;32.078;34.818;2024-01-10T01:44:38;101072.00;;;22.81;38.71
23619;BME280;18207;32.078;34.818;2024-01-10T01:47:08;101085.22;;;22.81;38.95
23619;BME280;18207;32.078;34.818;2024-01-10T01:49:38;101075.16;;;22.80;38.60
23619;BME280;18207;32.078;34.818;2024-01-10T01:52:11;101083.56;;;22.80;38.42
23619;BME280;18207;32.078;34.818;2024-01-10T01:54:43;101077.13;;;22.79;38.50
23619;BME280;18207;32.078;34.818;2024-01-10T01:57:13;101067.91;;;22.79;38.99
23619;BME280;18207;32.078;34.818;2024-01-10T01:59:43;101073.53;;;22.79;38.98
23619;BME280;18207;32.078;34.818;2024-01-10T02:02:15;101069.88;;;22.78;38.44
23619;BME280;18207;32.078;34.818;2024-01-10T02:04:47;101062.63;;;22.77;38.76
23619;BME280;18207;32.078;34.818;2024-01-10T02:07:17;101064.63;;;22.77;38.40
23619;BME280;18207;32.078;34.818;2024-01-10T02:09:49;101055.38;;;22.76;38.31
23619;BME280;18207;32.078;34.818;2024-01-10T02:12:18;101064.16;;;22.75;38.44
23619;BME280;18207;32.078;34.818;2024-01-10T02:14:48;101067.31;;;22.73;38.43
23619;BME280;18207;32.078;34.818;2024-01-10T02:17:18;101066.03;;;22.71;38.99
23619;BME280;18207;32.078;34.818;2024-01-10T02:19:48;101063.53;;;22.69;38.91
23619;BME280;18207;32.078;34.818;2024-01-10T02:22:20;101069.13;;;22.69;38.85
23619;BME280;18207;32.078;34.818;2024-01-10T02:24:54;101059.09;;;22.68;38.35
23619;BME280;18207;32.078;34.818;2024-01-10T02:27:25;101053.84;;;22.67;38.71
23619;BME280;18207;32.078;34.818;2024-01-10T02:29:56;101057.44;;;22.67;38.70
23619;BME280;18207;32.078;34.818;2024-01-10T02:32:27;101050.06;;;22.63;38.70
23619;BME280;18207;32.078;34.818;2024-01-10T02:34:57;101054.88;;;22.62;38.86
23619;BME280;18207;32.078;34.818;2024-01-10T02:37:27;101054.03;;;22.62;38.22
23619;BME280;18207;32.078;34.818;2024-01-10T02:39:58;101046.81;;;22.61;38.50
23619;BME280;18207;32.078;34.818;2024-01-10T02:42:28;101049.94;;;22.59;38.64
23619;BME280;18207;32.078;34.818;2024-01-10T02:44:58;101053.91;;;22.58;38.17
23619;BME280;18207;32.078;34.818;2024-01-10T02:47:28;101047.84;;;22.56;38.33
23619;BME280;18207;32.078;34.818;2024-01-10T02:49:58;101059.84;;;22.57;38.63
23619;BME280;18207;32.078;34.818;2024-01-10T02:52:28;101050.66;;;22.56;38.71
23619;BME280;18207;32.078;34.818;2024-01-10T02:54:59;101053.44;;;22.56;38.49
23619;BME280;18207;32.078;34.818;2024-01-10T02:57:29;101049.00;;;22.55;38.33
23619;BME280;18207;32.078;34.818;2024-01-10T02:59:59;101037.78;;;22.55;38.36
23619;BME280;18207;32.078;34.818;2024-01-10T03:02:29;101051.81;;;22.55;38.24
23619;BME280;18207;32.078;34.818;2024-01-10T03:04:59;101047.00;;;22.56;38.47
23619;BME280;18207;32.078;34.818;2024-01-10T03:07:29;101050.97;;;22.55;38.14
23619;BME280;18207;32.078;34.818;2024-01-10T03:10:01;101052.97;;;22.54;38.69
23619;BME280;18207;32.078;34.818;2024-01-10T03:12:31;101047.69;;;22.53;38.67
23619;BME280;18207;32.078;34.818;2024-01-10T03:15:06;101047.69;;;22.53;38.24
23619;BME280;18207;32.078;34.818;2024-01-10T03:17:36;101044.88;;;22.53;38.28
23619;BME280;18207;32.078;34.818;2024-01-10T03:20:14;101061.69;;;22.53;37.93
23619;BME280;18207;32.078;34.818;2024-01-10T03:22:44;101055.63;;;22.51;38.38
23619;BME280;18207;32.078;34.818;2024-01-10T03:25:15;101056.78;;;22.50;37.87
23619;BME280;18207;32.078;34.818;2024-01-10T03:27:45;101057.09;;;22.48;38.29
23619;BME280;18207;32.078;34.818;2024-01-10T03:30:16;101048.72;;;22.48;38.33
23619;BME280;18207;32.078;34.818;2024-01-10T03:32:47;101045.44;;;22.46;37.95
23619;BME280;18207;32.078;34.818;2024-01-10T03:35:17;101054.16;;;22.45;38.04
23619;BME280;18207;32.078;34.818;2024-01-10T03:37:47;101049.72;;;22.44;38.39
23619;BME280;18207;32.078;34.818;2024-01-10T03:40:18;101052.88;;;22.42;38.44
23619;BME280;18207;32.078;34.818;2024-01-10T03:42:48;101058.84;;;22.41;38.20
23619;BME280;18207;32.078;34.818;2024-01-10T03:45:18;101045.16;;;22.40;38.36
23619;BME280;18207;32.078;34.818;2024-01-10T03:47:51;101051.91;;;22.39;38.11
23619;BME280;18207;32.078;34.818;2024-01-10T03:50:21;101055.88;;;22.38;38.25
23619;BME280;18207;32.078;34.818;2024-01-10T03:52:51;101055.06;;;22.37;38.30
23619;BME280;18207;32.078;34.818;2024-01-10T03:55:22;101060.66;;;22.37;38.01
23619;BME280;18207;32.078;34.818;2024-01-10T03:57:52;101066.63;;;22.36;37.65
23619;BME280;18207;32.078;34.818;2024-01-10T04:00:28;101061.34;;;22.34;38.14
23619;BME280;18207;32.078;34.818;2024-01-10T04:02:59;101064.13;;;22.34;37.76
23619;BME280;18207;32.078;34.818;2024-01-10T04:05:29;101069.25;;;22.32;37.96
23619;BME280;18207;32.078;34.818;2024-01-10T04:07:59;101059.22;;;22.31;38.06
23619;BME280;18207;32.078;34.818;2024-01-10T04:10:31;101072.03;;;22.32;37.97
23619;BME280;18207;32.078;34.818;2024-01-10T04:13:01;101073.22;;;22.31;37.67
23619;BME280;18207;32.078;34.818;2024-01-10T04:15:31;101076.03;;;22.31;37.63
23619;BME280;18207;32.078;34.818;2024-01-10T04:18:00;101079.13;;;22.30;37.91
23619;BME280;18207;32.078;34.818;2024-01-10T04:20:31;101075.50;;;22.29;37.86
23619;BME280;18207;32.078;34.818;2024-01-10T04:23:01;101077.47;;;22.29;37.86
23619;BME280;18207;32.078;34.818;2024-01-10T04:25:33;101075.84;;;22.28;37.71
23619;BME280;18207;32.078;34.818;2024-01-10T04:28:03;101085.41;;;22.27;37.35
23619;BME280;18207;32.078;34.818;2024-01-10T04:30:32;101078.97;;;22.26;37.34
23619;BME280;18207;32.078;34.818;2024-01-10T04:33:03;101078.19;;;22.26;37.65
23619;BME280;18207;32.078;34.818;2024-01-10T04:35:33;101082.94;;;22.25;37.71
23619;BME280;18207;32.078;34.818;2024-01-10T04:38:03;101081.28;;;22.24;37.43
23619;BME280;18207;32.078;34.818;2024-01-10T04:40:35;101095.63;;;22.23;37.42
23619;BME280;18207;32.078;34.818;2024-01-10T04:43:05;101097.63;;;22.22;37.69
23619;BME280;18207;32.078;34.818;2024-01-10T04:45:35;101090.41;;;22.21;37.38
23619;BME280;18207;32.078;34.818;2024-01-10T04:48:05;101090.72;;;22.20;37.49
23619;BME280;18207;32.078;34.818;2024-01-10T04:50:35;101091.88;;;22.19;37.40
23619;BME280;18207;32.078;34.818;2024-01-10T04:53:05;101101.78;;;22.16;37.42
23619;BME280;18207;32.078;34.818;2024-01-10T04:55:37;101103.41;;;22.17;37.08
23619;BME280;18207;32.078;34.818;2024-01-10T04:58:07;101098.97;;;22.16;37.28
23619;BME280;18207;32.078;34.818;2024-01-10T05:00:36;101099.31;;;22.15;37.14
23619;BME280;18207;32.078;34.818;2024-01-10T05:03:06;101108.88;;;22.14;36.91
23619;BME280;18207;32.078;34.818;2024-01-10T05:05:36;101106.06;;;22.14;37.27
23619;BME280;18207;32.078;34.818;2024-01-10T05:08:07;101107.22;;;22.13;37.17
23619;BME280;18207;32.078;34.818;2024-01-10T05:10:38;101105.59;;;22.12;36.82
23619;BME280;18207;32.078;34.818;2024-01-10T05:13:08;101112.34;;;22.11;36.86
23619;BME280;18207;32.078;34.818;2024-01-10T05:15:38;101122.72;;;22.10;36.74
23619;BME280;18207;32.078;34.818;2024-01-10T05:18:08;101124.69;;;22.10;37.21
23619;BME280;18207;32.078;34.818;2024-01-10T05:20:39;101127.47;;;22.10;36.64
23619;BME280;18207;32.078;34.818;2024-01-10T05:23:09;101122.22;;;22.08;36.64
23619;BME280;18207;32.078;34.818;2024-01-10T05:25:40;101127.84;;;22.08;36.65
23619;BME280;18207;32.078;34.818;2024-01-10T05:28:10;101121.41;;;22.08;36.42
23619;BME280;18207;32.078;34.818;2024-01-10T05:30:40;101128.19;;;22.07;36.61
23619;BME280;18207;32.078;34.818;2024-01-10T05:33:11;101125.38;;;22.07;36.42
23619;BME280;18207;32.078;34.818;2024-01-10T05:35:41;101132.94;;;22.06;36.29
23619;BME280;18207;32.078;34.818;2024-01-10T05:38:12;101131.28;;;22.05;36.40
23619;BME280;18207;32.078;34.818;2024-01-10T05:40:43;101131.28;;;22.05;36.71
23619;BME280;18207;32.078;34.818;2024-01-10T05:43:13;101142.84;;;22.04;36.31
23619;BME280;18207;32.078;34.818;2024-01-10T05:45:43;101149.25;;;22.04;36.80
23619;BME280;18207;32.078;34.818;2024-01-10T05:48:13;101150.88;;;22.05;36.65
23619;BME280;18207;32.078;34.818;2024-01-10T05:50:45;101154.53;;;22.06;36.42
23619;BME280;18207;32.078;34.818;2024-01-10T05:53:15;101154.19;;;22.07;36.42
23619;BME280;18207;32.078;34.818;2024-01-10T05:55:47;101161.91;;;22.10;36.20
23619;BME280;18207;32.078;34.818;2024-01-10T05:58:17;101168.31;;;22.11;36.67
23619;BME280;18207;32.078;34.818;2024-01-10T06:00:47;101169.16;;;22.11;36.46
23619;BME280;18207;32.078;34.818;2024-01-10T06:03:16;101170.44;;;22.14;36.47
23619;BME280;18207;32.078;34.818;2024-01-10T06:05:46;101164.50;;;22.15;36.58
23619;BME280;18207;32.078;34.818;2024-01-10T06:08:16;101171.75;;;22.16;36.35
23619;BME280;18207;32.078;34.818;2024-01-10T06:10:54;101163.84;;;22.18;36.33
23619;BME280;18207;32.078;34.818;2024-01-10T06:13:24;101172.25;;;22.18;36.02
23619;BME280;18207;32.078;34.818;2024-01-10T06:16:06;101178.00;;;22.22;36.32
23619;BME280;18207;32.078;34.818;2024-01-10T06:18:36;101172.88;;;22.24;36.11
23619;BME280;18207;32.078;34.818;2024-01-10T06:21:06;101185.88;;;22.28;36.18
23619;BME280;18207;32.078;34.818;2024-01-10T06:23:37;101181.75;;;22.34;36.45
23619;BME280;18207;32.078;34.818;2024-01-10T06:26:09;101185.66;;;22.42;36.52
23619;BME280;18207;32.078;34.818;2024-01-10T06:28:39;101178.38;;;22.49;36.85
23619;BME280;18207;32.078;34.818;2024-01-10T06:31:09;101189.53;;;22.57;36.41
23619;BME280;18207;32.078;34.818;2024-01-10T06:33:39;101182.72;;;22.67;36.90
23619;BME280;18207;32.078;34.818;2024-01-10T06:36:09;101199.94;;;22.77;36.26
23619;BME280;18207;32.078;34.818;2024-01-10T06:38:39;101197.59;;;22.88;36.44
23619;BME280;18207;32.078;34.818;2024-01-10T06:41:12;101199.16;;;22.97;36.62
23619;BME280;18207;32.078;34.818;2024-01-10T06:43:43;101193.16;;;23.07;36.30
23619;BME280;18207;32.078;34.818;2024-01-10T06:46:13;101186.00;;;23.18;36.31
23619;BME280;18207;32.078;34.818;2024-01-10T06:48:43;101194.81;;;23.29;36.66
23619;BME280;18207;32.078;34.818;2024-01-10T06:51:13;101200.03;;;23.38;36.34
23619;BME280;18207;32.078;34.818;2024-01-10T06:53:44;101206.84;;;23.49;36.58
23619;BME280;18207;32.078;34.818;2024-01-10T06:56:15;101206.88;;;23.61;36.76
23619;BME280;18207;32.078;34.818;2024-01-10T06:58:45;101216.88;;;23.71;36.37
23619;BME280;18207;32.078;34.818;2024-01-10T07:01:15;101213.66;;;23.81;36.19
23619;BME280;18207;32.078;34.818;2024-01-10T07:03:45;101213.22;;;23.91;36.42
23619;BME280;18207;32.078;34.818;2024-01-10T07:06:15;101211.63;;;24.02;36.29
23619;BME280;18207;32.078;34.818;2024-01-10T07:08:45;101212.81;;;24.13;36.40
23619;BME280;18207;32.078;34.818;2024-01-10T07:11:18;101217.97;;;24.22;36.10
23619;BME280;18207;32.078;34.818;2024-01-10T07:13:48;101216.31;;;24.33;36.60
23619;BME280;18207;32.078;34.818;2024-01-10T07:16:18;101217.88;;;24.43;36.25
23619;BME280;18207;32.078;34.818;2024-01-10T07:18:50;101220.59;;;24.51;36.34
23619;BME280;18207;32.078;34.818;2024-01-10T07:21:20;101220.13;;;24.61;36.33
23619;BME280;18207;32.078;34.818;2024-01-10T07:23:50;101220.47;;;24.72;36.48
23619;BME280;18207;32.078;34.818;2024-01-10T07:26:21;101208.75;;;24.82;36.30
23619;BME280;18207;32.078;34.818;2024-01-10T07:28:51;101210.72;;;24.93;36.22
23619;BME280;18207;32.078;34.818;2024-01-10T07:31:21;101213.03;;;25.03;36.21
23619;BME280;18207;32.078;34.818;2024-01-10T07:33:51;101208.97;;;25.12;36.37
23619;BME280;18207;32.078;34.818;2024-01-10T07:36:23;101208.09;;;25.24;35.99
23619;BME280;18207;32.078;34.818;2024-01-10T07:38:54;101211.59;;;25.33;36.13
23619;BME280;18207;32.078;34.818;2024-01-10T07:41:30;101216.72;;;25.43;36.06
23619;BME280;18207;32.078;34.818;2024-01-10T07:44:00;101212.59;;;25.52;35.98
23619;BME280;18207;32.078;34.818;2024-01-10T07:46:31;101216.88;;;25.62;36.00
23619;BME280;18207;32.078;34.818;2024-01-10T07:49:02;101207.91;;;25.72;35.93
23619;BME280;18207;32.078;34.818;2024-01-10T07:51:33;101207.81;;;25.80;35.91
23619;BME280;18207;32.078;34.818;2024-01-10T07:54:03;101216.09;;;25.89;35.81
23619;BME280;18207;32.078;34.818;2024-01-10T07:56:35;101211.03;;;25.94;35.69
23619;BME280;18207;32.078;34.818;2024-01-10T07:59:05;101209.09;;;25.98;35.69
23619;BME280;18207;32.078;34.818;2024-01-10T08:01:35;101210.75;;;25.99;35.42
23619;BME280;18207;32.078;34.818;2024-01-10T08:04:05;101203.09;;;25.99;35.50
23619;BME280;18207;32.078;34.818;2024-01-10T08:06:35;101204.75;;;26.00;35.28
23619;BME280;18207;32.078;34.818;2024-01-10T08:09:05;101201.94;;;26.00;35.29
23619;BME280;18207;32.078;34.818;2024-01-10T08:11:38;101189.00;;;25.99;35.34
23619;BME280;18207;32.078;34.818;2024-01-10T08:14:08;101188.59;;;25.98;35.17
23619;BME280;18207;32.078;34.818;2024-01-10T08:16:38;101184.13;;;25.97;35.35
23619;BME280;18207;32.078;34.818;2024-01-10T08:19:08;101185.31;;;25.96;35.35
23619;BME280;18207;32.078;34.818;2024-01-10T08:21:39;101184.47;;;25.95;35.24
23619;BME280;18207;32.078;34.818;2024-01-10T08:24:09;101177.22;;;25.94;35.47
23619;BME280;18207;32.078;34.818;2024-01-10T08:26:41;101166.75;;;25.95;35.23
23619;BME280;18207;32.078;34.818;2024-01-10T08:29:11;101176.03;;;25.95;35.47
23619;BME280;18207;32.078;34.818;2024-01-10T08:31:43;101174.84;;;25.96;35.39
23619;BME280;18207;32.078;34.818;2024-01-10T08:34:13;101168.88;;;25.98;35.28
23619;BME280;18207;32.078;34.818;2024-01-10T08:36:43;101172.50;;;25.98;35.42
23619;BME280;18207;32.078;34.818;2024-01-10T08:39:13;101174.94;;;25.99;35.35
23619;BME280;18207;32.078;34.818;2024-01-10T08:41:45;101181.88;;;26.02;35.27
23619;BME280;18207;32.078;34.818;2024-01-10T08:44:15;101166.22;;;26.04;35.51
23619;BME280;18207;32.078;34.818;2024-01-10T08:46:45;101167.97;;;26.09;35.36
23619;BME280;18207;32.078;34.818;2024-01-10T08:49:16;101153.97;;;26.12;35.40
23619;BME280;18207;32.078;34.818;2024-01-10T08:51:46;101162.16;;;26.17;35.35
23619;BME280;18207;32.078;34.818;2024-01-10T08:54:16;101158.59;;;26.20;35.05
23619;BME280;18207;32.078;34.818;2024-01-10T08:56:50;101151.84;;;26.25;35.40
23619;BME280;18207;32.078;34.818;2024-01-10T08:59:19;101161.22;;;26.29;35.30
23619;BME280;18207;32.078;34.818;2024-01-10T09:01:49;101155.31;;;26.34;35.33
23619;BME280;18207;32.078;34.818;2024-01-10T09:04:20;101150.97;;;26.36;35.29
23619;BME280;18207;32.078;34.818;2024-01-10T09:06:49;101141.44;;;26.41;35.22
23619;BME280;18207;32.078;34.818;2024-01-10T09:09:19;101130.25;;;26.44;35.20
23619;BME280;18207;32.078;34.818;2024-01-10T09:11:51;101130.72;;;26.46;35.25
23619;BME280;18207;32.078;34.818;2024-01-10T09:14:24;101131.13;;;26.48;35.29
23619;BME280;18207;32.078;34.818;2024-01-10T09:16:53;101117.88;;;26.49;35.16
23619;BME280;18207;32.078;34.818;2024-01-10T09:19:23;101126.31;;;26.49;35.29
23619;BME280;18207;32.078;34.818;2024-01-10T09:21:53;101107.78;;;26.48;35.38
23619;BME280;18207;32.078;34.818;2024-01-10T09:24:26;101110.13;;;26.46;35.35
23619;BME280;18207;32.078;34.818;2024-01-10T09:26:58;101109.69;;;26.44;35.37
23619;BME280;18207;32.078;34.818;2024-01-10T09:29:28;101112.88;;;26.42;35.33
23619;BME280;18207;32.078;34.818;2024-01-10T09:31:59;101110.06;;;26.42;35.38
23619;BME280;18207;32.078;34.818;2024-01-10T09:34:29;101092.69;;;26.40;35.30
23619;BME280;18207;32.078;34.818;2024-01-10T09:37:00;101100.34;;;26.40;35.27
23619;BME280;18207;32.078;34.818;2024-01-10T09:39:30;101101.50;;;26.39;35.26
23619;BME280;18207;32.078;34.818;2024-01-10T09:42:02;101097.88;;;26.38;35.43
23619;BME280;18207;32.078;34.818;2024-01-10T09:44:33;101098.66;;;26.39;35.38
23619;BME280;18207;32.078;34.818;2024-01-10T09:47:03;101101.97;;;26.41;35.47
23619;BME280;18207;32.078;34.818;2024-01-10T09:49:34;101097.16;;;26.41;35.50
23619;BME280;18207;32.078;34.818;2024-01-10T09:52:10;101089.16;;;26.43;35.36
23619;BME280;18207;32.078;34.818;2024-01-10T09:54:41;101082.72;;;26.43;35.38
23619;BME280;18207;32.078;34.818;2024-01-10T09:57:16;101091.16;;;26.43;35.30
23619;BME280;18207;32.078;34.818;2024-01-10T09:59:47;101089.53;;;26.42;35.27
23619;BME280;18207;32.078;34.818;2024-01-10T10:02:19;101085.06;;;26.41;34.81
23619;BME280;18207;32.078;34.818;2024-01-10T10:05:01;101085.06;;;26.41;35.34
23619;BME280;18207;32.078;34.818;2024-01-10T10:07:44;101083.44;;;26.40;35.17
23619;BME280;18207;32.078;34.818;2024-01-10T10:10:15;101077.69;;;26.36;35.26
23619;BME280;18207;32.078;34.818;2024-01-10T10:12:48;101065.13;;;26.34;35.14
23619;BME280;18207;32.078;34.818;2024-01-10T10:15:21;101065.03;;;26.30;34.89
23619;BME280;18207;32.078;34.818;2024-01-10T10:17:52;101059.31;;;26.27;35.02
23619;BME280;18207;32.078;34.818;2024-01-10T10:20:26;101068.16;;;26.25;35.03
23619;BME280;18207;32.078;34.818;2024-01-10T10:23:02;101046.78;;;26.24;35.12
23619;BME280;18207;32.078;34.818;2024-01-10T10:25:34;101050.34;;;26.21;35.08
23619;BME280;18207;32.078;34.818;2024-01-10T10:28:06;101055.97;;;26.21;35.04
23619;BME280;18207;32.078;34.818;2024-01-10T10:30:47;101053.53;;;26.20;34.96
23619;BME280;18207;32.078;34.818;2024-01-10T10:33:18;101047.06;;;26.19;34.93
23619;BME280;18207;32.078;34.818;2024-01-10T10:35:50;101047.44;;;26.18;34.91
23619;BME280;18207;32.078;34.818;2024-01-10T10:38:22;101039.38;;;26.16;34.75
23619;BME280;18207;32.078;34.818;2024-01-10T10:40:52;101040.53;;;26.15;35.14
23619;BME280;18207;32.078;34.818;2024-01-10T10:43:26;101034.00;;;26.11;34.74
23619;BME280;18207;32.078;34.818;2024-01-10T10:45:58;101041.97;;;26.09;34.72
23619;BME280;18207;32.078;34.818;2024-01-10T10:48:33;101044.38;;;26.07;34.53
23619;BME280;18207;32.078;34.818;2024-01-10T10:51:07;101045.09;;;26.04;34.56
23619;BME280;18207;32.078;34.818;2024-01-10T10:53:39;101036.19;;;26.02;34.52
23619;BME280;18207;32.078;34.818;2024-01-10T10:56:09;101034.56;;;26.01;34.75
23619;BME280;18207;32.078;34.818;2024-01-10T10:58:43;101038.19;;;26.02;34.52
23619;BME280;18207;32.078;34.818;2024-01-10T11:01:14;101025.28;;;26.01;34.56
23619;BME280;18207;32.078;34.818;2024-01-10T11:03:48;101020.00;;;25.99;34.41
23619;BME280;18207;32.078;34.818;2024-01-10T11:06:18;101024.84;;;25.99;34.33
23619;BME280;18207;32.078;34.818;2024-01-10T11:08:54;101016.38;;;25.99;34.33
23619;BME280;18207;32.078;34.818;2024-01-10T11:11:55;101011.94;;;25.98;34.23
23619;BME280;18207;32.078;34.818;2024-01-10T11:14:51;101017.56;;;25.98;34.29
23619;BME280;18207;32.078;34.818;2024-01-10T11:17:49;101012.31;;;25.97;34.37
23619;BME280;18207;32.078;34.818;2024-01-10T11:20:51;101014.28;;;25.96;34.35
23619;BME280;18207;32.078;34.818;2024-01-10T11:23:40;100999.41;;;25.96;34.27
23619;BME280;18207;32.078;34.818;2024-01-10T11:26:14;101003.41;;;25.95;34.44
23619;BME280;18207;32.078;34.818;2024-01-10T11:28:45;100997.78;;;25.95;34.13
23619;BME280;18207;32.078;34.818;2024-01-10T11:31:28;100986.97;;;25.97;34.16
23619;BME280;18207;32.078;34.818;2024-01-10T11:34:01;100984.50;;;25.95;34.07
23619;BME280;18207;32.078;34.818;2024-01-10T11:36:31;100989.31;;;25.95;34.13
23619;BME280;18207;32.078;34.818;2024-01-10T11:39:04;100992.59;;;25.97;34.09
23619;BME280;18207;32.078;34.818;2024-01-10T11:41:36;100987.31;;;25.95;33.74
23619;BME280;18207;32.078;34.818;2024-01-10T11:44:29;101007.84;;;25.96;33.95
23619;BME280;18207;32.078;34.818;2024-01-10T11:47:04;100999.78;;;25.94;33.92
23619;BME280;18207;32.078;34.818;2024-01-10T11:49:33;100995.34;;;25.93;33.70
23619;BME280;18207;32.078;34.818;2024-01-10T11:52:04;100998.94;;;25.94;33.89
23619;BME280;18207;32.078;34.818;2024-01-10T11:54:44;100996.97;;;25.94;33.89
23619;BME280;18207;32.078;34.818;2024-01-10T11:57:20;101000.13;;;25.93;33.76
23619;BME280;18207;32.078;34.818;2024-01-10T11:59:52;101010.59;;;25.92;33.67
23619;BME280;18207;32.078;34.818;2024-01-10T12:02:24;101002.16;;;25.92;33.72
23619;BME280;18207;32.078;34.818;2024-01-10T12:04:55;101008.97;;;25.91;33.85
23619;BME280;18207;32.078;34.818;2024-01-10T12:07:25;101003.31;;;25.91;33.59
23619;BME280;18207;32.078;34.818;2024-01-10T12:09:55;101002.50;;;25.91;33.62
23619;BME280;18207;32.078;34.818;2024-01-10T12:12:25;101014.13;;;25.89;33.72
23619;BME280;18207;32.078;34.818;2024-01-10T12:15:05;101009.69;;;25.88;33.56
23619;BME280;18207;32.078;34.818;2024-01-10T12:17:39;101005.59;;;25.86;33.42
23619;BME280;18207;32.078;34.818;2024-01-10T12:20:10;100999.50;;;25.84;33.31
23619;BME280;18207;32.078;34.818;2024-01-10T12:22:40;100995.44;;;25.81;33.29
23619;BME280;18207;32.078;34.818;2024-01-10T12:25:12;101003.41;;;25.79;33.37
23619;BME280;18207;32.078;34.818;2024-01-10T12:27:41;101000.50;;;25.76;33.31
23619;BME280;18207;32.078;34.818;2024-01-10T12:30:12;101000.88;;;25.74;33.40
23619;BME280;18207;32.078;34.818;2024-01-10T12:32:44;101010.13;;;25.75;33.27
23619;BME280;18207;32.078;34.818;2024-01-10T12:35:17;101019.75;;;25.74;33.31
23619;BME280;18207;32.078;34.818;2024-01-10T12:37:54;101014.09;;;25.74;32.79
23619;BME280;18207;32.078;34.818;2024-01-10T12:40:25;101030.53;;;25.72;32.73
23619;BME280;18207;32.078;34.818;2024-01-10T12:43:03;101012.00;;;25.71;33.29
23619;BME280;18207;32.078;34.818;2024-01-10T12:45:32;101026.47;;;25.69;33.14
23619;BME280;18207;32.078;34.818;2024-01-10T12:48:05;101024.47;;;25.70;32.82
23619;BME280;18207;32.078;34.818;2024-01-10T12:50:36;101025.66;;;25.69;32.83
23619;BME280;18207;32.078;34.818;2024-01-10T12:53:06;101025.66;;;25.69;32.90
23619;BME280;18207;32.078;34.818;2024-01-10T12:55:36;101031.63;;;25.67;32.96
23619;BME280;18207;32.078;34.818;2024-01-10T12:58:05;101025.19;;;25.67;33.23
23619;BME280;18207;32.078;34.818;2024-01-10T13:00:35;101020.28;;;25.64;33.09
23619;BME280;18207;32.078;34.818;2024-01-10T13:03:07;101029.91;;;25.63;32.65